Flight Track Log - Related Links

Times and Time Zones

All times are in EDT time to prevent confusion due to time zone crossing. See the ASQ5324 flight status page for this flight to view local times or setup timezone preferences in your user account.

Time Position Orientation Groundspeed Altitude Reporting Facility
EDT Latitude Longitude Course Direction KTS MPH feet Rate Location/Type
Mon 03:29:21 PM 42.2039 -83.3697 219° Southwest 154 177 1,400  Level Cleveland Center
Mon 03:29:33 PM 42.1969 -83.3772 219° Southwest 153 176 1,800 1,342 Climbing Cleveland Center
Mon 03:30:37 PM 42.1567 -83.4164 216° Southwest 220 253 3,100 1,522 Climbing Cleveland Center
Mon 03:30:40 PM 42.1469 -83.4264 217° Southwest 232 267 3,500 2,793 Climbing Cleveland Center
Mon 03:31:35 PM 42.0933 -83.4694 211° Southwest 252 290 5,800 2,339 Climbing Cleveland Center
Mon 03:31:39 PM 42.0947 -83.4686 24° Northeast 239 275 5,800 2,239 Level Cleveland Center
Mon 03:32:42 PM 42.0300 -83.5189 210° Southwest 261 300 8,300 2,448 Climbing Cleveland Center
Mon 03:33:44 PM 41.9686 -83.5667 210° Southwest 271 312 10,900 1,935 Climbing Cleveland Center
Mon 03:34:46 PM 41.8825 -83.6342 210° Southwest 308 354 12,300 1,306 Climbing Cleveland Center
Mon 03:35:48 PM 41.7989 -83.7000 210° Southwest 344 396 13,600 1,355 Climbing Cleveland Center
Mon 03:36:50 PM 41.7086 -83.7697 210° Southwest 369 425 15,100 1,452 Climbing Cleveland Center
Mon 03:37:52 PM 41.6158 -83.8417 210° Southwest 382 440 16,600 1,355 Climbing Cleveland Center
Mon 03:38:54 PM 41.5214 -83.9167 211° Southwest 392 451 17,900 1,355 Climbing Cleveland Center
Mon 03:39:56 PM 41.4258 -83.9922 211° Southwest 397 457 19,400 1,488 Climbing Cleveland Center
Mon 03:40:59 PM 41.3253 -84.0711 211° Southwest 401 461 21,000 1,488 Climbing Cleveland Center
Mon 03:42:01 PM 41.2344 -84.1925 225° Southwest 403 464 22,500 1,306 Climbing Cleveland Center
Mon 03:43:03 PM 41.2072 -84.3322 256° West 395 455 23,700 1,065 Climbing Cleveland Center
Mon 03:44:05 PM 41.2058 -84.4767 269° West 391 450 24,700 968 Climbing Cleveland Center
Mon 03:45:07 PM 41.2022 -84.6231 268° West 394 453 25,700 968 Climbing Cleveland Center
Mon 03:46:09 PM 41.1992 -84.7697 268° West 395 455 26,700 968 Climbing Cleveland Center
Mon 03:47:11 PM 41.1678 -84.9111 254° West 401 461 27,700 1,065 Climbing Cleveland Center
Mon 03:48:13 PM 41.1278 -85.0800 253° West 401 461 28,900 1,113 Climbing Cleveland Center
Mon 03:49:15 PM 41.0950 -85.2192 253° West 398 458 30,000 1,030 Climbing Cleveland Center
Mon 03:49:52 PM 41.0792 -85.2911 254° West 396 456 30,600 1,186 Climbing Indianapolis Center
Mon 03:50:41 PM 41.0447 -85.4047 248° West 392 451 31,700 1,243 Climbing Chicago Center
Mon 03:51:43 PM 40.9939 -85.5278 241° Southwest 383 441 32,900 1,161 Climbing Chicago Center
Mon 03:52:45 PM 40.9458 -85.6489 242° Southwest 374 430 34,100 1,016 Climbing Chicago Center
Mon 03:53:47 PM 40.8992 -85.7667 242° Southwest 367 422 35,000 677 Climbing Chicago Center
Mon 03:54:49 PM 40.8519 -85.8836 242° Southwest 362 417 35,500 484 Climbing Chicago Center
Mon 03:55:51 PM 40.7942 -86.0244 242° Southwest 362 417 36,000 242 Climbing Chicago Center
Mon 03:56:53 PM 40.7453 -86.1483 243° Southwest 373 429 36,000  Level Chicago Center
Mon 03:57:55 PM 40.6942 -86.2750 242° Southwest 385 443 36,000  Level Chicago Center
Mon 03:58:57 PM 40.6386 -86.4164 243° Southwest 398 458 36,000  Level Chicago Center
Mon 03:59:59 PM 40.5853 -86.5456 241° Southwest 401 461 36,000  Level Chicago Center
Mon 04:01:01 PM 40.5314 -86.6742 241° Southwest 405 466 36,000  Level Chicago Center
Mon 04:02:03 PM 40.4789 -86.8017 242° Southwest 403 464 36,000  Level Chicago Center
Mon 04:03:05 PM 40.4256 -86.9306 242° Southwest 403 464 36,000 290 Level Chicago Center
Mon 04:04:07 PM 40.3614 -87.0833 241° Southwest 403 464 36,600 780 Climbing Chicago Center
Mon 04:05:08 PM 40.3106 -87.2044 241° Southwest 385 443 37,600 683 Climbing Chicago Center
Mon 04:06:10 PM 40.2606 -87.3233 241° Southwest 379 436 38,000 129 Climbing Chicago Center
Mon 04:08:14 PM 40.1572 -87.5656 241° Southwest 384 442 38,000  Level Chicago Center
Mon 04:09:16 PM 40.1056 -87.6878 241° Southwest 384 442 38,000  Level Chicago Center
Mon 04:10:18 PM 40.0428 -87.8358 241° Southwest 389 448 38,000  Level Chicago Center
Mon 04:11:20 PM 39.9889 -87.9592 240° Southwest 390 449 38,000  Level Chicago Center
Mon 04:12:22 PM 39.9381 -88.0783 241° Southwest 382 440 38,000  Level Chicago Center
Mon 04:13:24 PM 39.8919 -88.1847 241° Southwest 373 429 38,000  Level Chicago Center
Mon 04:14:26 PM 39.8317 -88.3217 240° Southwest 365 420 38,000  Level Chicago Center
Mon 04:15:07 PM 39.7994 -88.3975 241° Southwest 362 417 38,000  Level Indianapolis Center
Mon 04:15:53 PM 39.7642 -88.4797 241° Southwest 362 417 38,000  Level Kansas City Center
Mon 04:16:54 PM 39.7139 -88.5931 240° Southwest 362 417 38,000  Level Kansas City Center
Mon 04:17:56 PM 39.6633 -88.7064 240° Southwest 362 417 38,000  Level Kansas City Center
Mon 04:19:00 PM 39.6147 -88.8194 241° Southwest 362 417 38,000  Level Kansas City Center
Mon 04:20:00 PM 39.5633 -88.9325 240° Southwest 362 417 38,000  Level Kansas City Center
Mon 04:21:02 PM 39.5131 -89.0458 240° Southwest 362 417 38,000  Level Kansas City Center
Mon 04:22:05 PM 39.4514 -89.1833 240° Southwest 363 418 38,000  Level Kansas City Center
Mon 04:23:06 PM 39.4053 -89.2875 240° Southwest 363 418 38,000  Level Kansas City Center
Mon 04:24:10 PM 39.3542 -89.4014 240° Southwest 364 419 38,000  Level Kansas City Center
Mon 04:25:10 PM 39.2925 -89.5381 240° Southwest 365 420 38,000  Level Kansas City Center
Mon 04:26:12 PM 39.2408 -89.6506 239° Southwest 365 420 38,000  Level Kansas City Center
Mon 04:27:16 PM 39.1897 -89.7631 240° Southwest 365 420 38,000  Level Kansas City Center
Mon 04:28:16 PM 39.1400 -89.8753 240° Southwest 364 419 38,000  Level Kansas City Center
Mon 04:29:21 PM 39.0886 -89.9864 239° Southwest 364 419 38,000  Level Kansas City Center
Mon 04:30:21 PM 39.0383 -90.0964 240° Southwest 363 418 38,000  Level Kansas City Center
Mon 04:31:22 PM 38.9786 -90.2281 240° Southwest 362 417 38,000  Level Kansas City Center
Mon 04:32:26 PM 38.9286 -90.3344 239° Southwest 361 415 38,000  Level Kansas City Center
Mon 04:33:26 PM 38.8803 -90.4450 241° Southwest 356 410 38,000  Level Kansas City Center
Mon 04:34:28 PM 38.8239 -90.5514 236° Southwest 356 410 38,000  Level Kansas City Center
Mon 04:35:31 PM 38.7689 -90.6606 237° Southwest 362 417 38,000  Level Kansas City Center
Mon 04:36:33 PM 38.7069 -90.7833 237° Southwest 360 414 38,000  Level Kansas City Center
Mon 04:37:36 PM 38.6531 -90.8886 237° Southwest 359 413 38,000  Level Kansas City Center
Mon 04:38:37 PM 38.5994 -90.9939 237° Southwest 358 412 38,000  Level Kansas City Center
Mon 04:39:42 PM 38.5456 -91.0992 237° Southwest 357 411 38,000  Level Kansas City Center
Mon 04:40:42 PM 38.4808 -91.2261 237° Southwest 356 410 38,000  Level Kansas City Center
Mon 04:41:43 PM 38.4278 -91.3294 237° Southwest 353 406 38,000  Level Kansas City Center
Mon 04:42:46 PM 38.3783 -91.4208 235° Southwest 352 405 38,000  Level Kansas City Center
Mon 04:43:47 PM 38.3125 -91.5467 236° Southwest 353 406 38,000  Level Kansas City Center
Mon 04:44:50 PM 38.2597 -91.6525 238° Southwest 353 406 38,000  Level Kansas City Center
Mon 04:45:53 PM 38.2039 -91.7553 235° Southwest 352 405 38,000  Level Kansas City Center
Mon 04:46:54 PM 38.1492 -91.8597 236° Southwest 352 405 38,000  Level Kansas City Center
Mon 04:47:58 PM 38.0944 -91.9636 236° Southwest 353 406 38,000  Level Kansas City Center
Mon 04:48:58 PM 38.0431 -92.0808 241° Southwest 353 406 38,000  Level Kansas City Center
Mon 04:50:02 PM 37.9969 -92.1919 242° Southwest 355 409 38,000  Level Kansas City Center
Mon 04:51:01 PM 37.9503 -92.3050 242° Southwest 358 412 38,000  Level Kansas City Center
Mon 04:52:06 PM 37.9028 -92.4164 242° Southwest 359 413 38,000  Level Kansas City Center
Mon 04:53:06 PM 37.8458 -92.5503 242° Southwest 359 413 38,000  Level Kansas City Center
Mon 04:54:09 PM 37.7989 -92.6614 242° Southwest 360 414 38,000  Level Kansas City Center
Mon 04:55:09 PM 37.7489 -92.7789 242° Southwest 360 414 38,000  Level Kansas City Center
Mon 04:56:13 PM 37.7008 -92.8914 242° Southwest 361 415 38,000  Level Kansas City Center
Mon 04:57:15 PM 37.6525 -93.0025 241° Southwest 361 415 38,000  Level Kansas City Center
Mon 04:58:17 PM 37.6042 -93.1139 241° Southwest 361 415 38,000  Level Kansas City Center
Mon 04:59:17 PM 37.5567 -93.2269 242° Southwest 361 415 38,000 -96 Level Kansas City Center
Mon 05:00:22 PM 37.4983 -93.3608 241° Southwest 362 417 37,800 -333 Descending Kansas City Center
Mon 05:01:23 PM 37.4469 -93.4756 241° Southwest 370 426 37,300 -393 Descending Kansas City Center
Mon 05:02:24 PM 37.3947 -93.5931 241° Southwest 380 437 37,000 -145 Descending Kansas City Center
Mon 05:03:27 PM 37.3439 -93.7139 242° Southwest 385 443 37,000 -97 Level Kansas City Center
Mon 05:04:28 PM 37.2911 -93.8322 241° Southwest 386 444 36,800 -816 Descending Kansas City Center
Mon 05:05:32 PM 37.2375 -93.9519 241° Southwest 389 448 35,300 -1,200 Descending Kansas City Center
Mon 05:06:33 PM 37.1844 -94.0714 241° Southwest 392 451 34,300 -629 Descending Kansas City Center
Mon 05:07:36 PM 37.1297 -94.1958 241° Southwest 374 430 34,000 -144 Descending Kansas City Center
Mon 05:08:38 PM 37.0842 -94.2992 241° Southwest 347 399 34,000 -49 Level Kansas City Center
Mon 05:09:38 PM 37.0381 -94.4022 241° Southwest 343 395 33,900 -1,377 Descending Kansas City Center
Mon 05:10:40 PM 36.9892 -94.5086 240° Southwest 349 402 31,200 -3,024 Descending Kansas City Center
Mon 05:11:43 PM 36.9292 -94.6419 241° Southwest 364 419 27,600 -3,168 Descending Kansas City Center
Mon 05:12:45 PM 36.8819 -94.7475 241° Southwest 353 406 24,600 -2,710 Descending Kansas City Center
Mon 05:13:47 PM 36.8369 -94.8467 240° Southwest 336 387 22,000 -2,488 Descending Kansas City Center
Mon 05:14:48 PM 36.7939 -94.9408 240° Southwest 319 367 19,500 -2,177 Descending Kansas City Center
Mon 05:15:51 PM 36.7528 -95.0317 241° Southwest 308 354 17,500 -2,138 Descending Kansas City Center
Mon 05:16:15 PM 36.7300 -95.0789 239° Southwest 300 345 16,400 -1,875 Descending Kansas City Center
Mon 05:16:55 PM 36.7111 -95.1217 241° Southwest 304 350 15,500 -1,814 Descending Kansas City Center
Mon 05:16:58 PM 36.7022 -95.1400 239° Southwest 298 343 15,100 -2,250 Descending Kansas City Center
Mon 05:17:59 PM 36.6597 -95.2269 239° Southwest 292 336 13,100 -2,034 Descending Kansas City Center
Mon 05:18:56 PM 36.6069 -95.2936 225° Southwest 281 323 11,100 -2,200 Descending Kansas City Center
Mon 05:18:59 PM 36.6033 -95.2997 234° Southwest 270 311 10,900 -1,500 Descending Kansas City Center
Mon 05:20:00 PM 36.5636 -95.3728 236° Southwest 247 284 9,500 -1,571 Descending Kansas City Center
Mon 05:21:05 PM 36.5286 -95.4506 241° Southwest 234 269 7,600 -1,561 Descending Kansas City Center
Mon 05:22:03 PM 36.5106 -95.5128 250° West 243 280 6,300 -1,574 Descending Kansas City Center
Mon 05:22:06 PM 36.5058 -95.5264 247° West 237 273 6,000 -1,714 Descending Kansas City Center
Mon 05:23:06 PM 36.4872 -95.6044 254° West 239 275 4,500 -942 Descending Kansas City Center
Mon 05:24:07 PM 36.4675 -95.6875 254° West 232 267 4,100 -197 Descending Kansas City Center
Mon 05:25:08 PM 36.4328 -95.7467 234° Southwest 220 253 4,100  Level Kansas City Center
Mon 05:25:11 PM 36.4369 -95.7419 42° Northeast 225 259 4,100  Level Kansas City Center
Mon 05:26:09 PM 36.3981 -95.8058 233° Southwest 212 244 4,100  Level Kansas City Center
Mon 05:26:12 PM 36.4017 -95.8022 39° Northeast 219 252 4,100 -787 Level Kansas City Center
Mon 05:27:10 PM 36.3653 -95.8644 234° Southwest 207 238 3,300 -689 Descending Kansas City Center
Mon 05:27:13 PM 36.3678 -95.8611 47° Northeast 216 249 3,400 -197 Climbing Kansas City Center
Mon 05:28:11 PM 36.3217 -95.8936 210° Southwest 169 194 3,100 -393 Descending Kansas City Center
Mon 05:28:14 PM 36.3153 -95.8947 188° South 191 220 3,000 -885 Descending Kansas City Center
Mon 05:29:12 PM 36.2800 -95.8964 182° South 138 159 2,200 -938 Descending Kansas City Center
Mon 05:29:18 PM 36.2747 -95.8947 166° South 163 188 2,000 -800 Descending Kansas City Center
Mon 05:30:12 PM 36.2444 -95.8983 185° South 116 133 1,400 -600 Descending Kansas City Center
Mon 05:30:18 PM 36.2406 -95.8967 161° South 141 162 1,400 -600 Level Kansas City Center
Mon 05:31:22 PM 36.2058 -95.8986 183° South 130 150 700 -656 Descending Kansas City Center

Login

Don't have an account? Register now (free) for customized features, flight alerts, and more!